sensor_id;sensor_type;location;lat;lon;timestamp;temperature;humidity
3790;DHT22;1910;49.042;9.028;2022-09-21T00:00:33;6.50;99.90
3790;DHT22;1910;49.042;9.028;2022-09-21T00:02:59;6.50;99.90
3790;DHT22;1910;49.042;9.028;2022-09-21T00:05:25;6.40;99.90
3790;DHT22;1910;49.042;9.028;2022-09-21T00:07:51;6.40;99.90
3790;DHT22;1910;49.042;9.028;2022-09-21T00:10:17;6.40;99.90
3790;DHT22;1910;49.042;9.028;2022-09-21T00:12:44;6.40;99.90
3790;DHT22;1910;49.042;9.028;2022-09-21T00:15:12;6.40;99.90
3790;DHT22;1910;49.042;9.028;2022-09-21T00:17:38;6.40;99.90
3790;DHT22;1910;49.042;9.028;2022-09-21T00:20:05;6.40;99.90
3790;DHT22;1910;49.042;9.028;2022-09-21T00:22:33;6.30;99.90
3790;DHT22;1910;49.042;9.028;2022-09-21T00:24:59;6.30;99.90
3790;DHT22;1910;49.042;9.028;2022-09-21T00:27:29;6.30;99.90
3790;DHT22;1910;49.042;9.028;2022-09-21T00:29:58;6.20;99.90
3790;DHT22;1910;49.042;9.028;2022-09-21T00:32:28;6.20;99.90
3790;DHT22;1910;49.042;9.028;2022-09-21T00:34:56;6.20;99.90
3790;DHT22;1910;49.042;9.028;2022-09-21T00:37:22;6.20;99.90
3790;DHT22;1910;49.042;9.028;2022-09-21T00:39:48;6.20;99.90
3790;DHT22;1910;49.042;9.028;2022-09-21T00:42:27;6.20;99.90
3790;DHT22;1910;49.042;9.028;2022-09-21T00:44:53;6.20;99.90
3790;DHT22;1910;49.042;9.028;2022-09-21T00:47:24;6.10;99.90
3790;DHT22;1910;49.042;9.028;2022-09-21T00:49:52;6.10;99.90
3790;DHT22;1910;49.042;9.028;2022-09-21T00:52:21;6.10;99.90
3790;DHT22;1910;49.042;9.028;2022-09-21T00:54:57;6.10;99.90
3790;DHT22;1910;49.042;9.028;2022-09-21T00:57:26;6.10;99.90
3790;DHT22;1910;49.042;9.028;2022-09-21T00:59:56;6.00;99.90
3790;DHT22;1910;49.042;9.028;2022-09-21T01:02:23;5.90;99.90
3790;DHT22;1910;49.042;9.028;2022-09-21T01:04:51;5.80;99.90
3790;DHT22;1910;49.042;9.028;2022-09-21T01:07:21;5.80;99.90
3790;DHT22;1910;49.042;9.028;2022-09-21T01:09:51;5.90;99.90
3790;DHT22;1910;49.042;9.028;2022-09-21T01:17:35;5.80;99.90
3790;DHT22;1910;49.042;9.028;2022-09-21T01:20:39;5.80;99.90
3790;DHT22;1910;49.042;9.028;2022-09-21T01:28:27;5.80;99.90
3790;DHT22;1910;49.042;9.028;2022-09-21T01:30:57;5.80;99.90
3790;DHT22;1910;49.042;9.028;2022-09-21T01:33:30;5.90;99.90
3790;DHT22;1910;49.042;9.028;2022-09-21T01:36:00;6.00;99.90
3790;DHT22;1910;49.042;9.028;2022-09-21T01:38:31;6.00;99.90
3790;DHT22;1910;49.042;9.028;2022-09-21T01:41:02;5.90;99.90
3790;DHT22;1910;49.042;9.028;2022-09-21T01:43:37;5.80;99.90
3790;DHT22;1910;49.042;9.028;2022-09-21T01:46:06;5.80;99.90
3790;DHT22;1910;49.042;9.028;2022-09-21T01:48:37;5.80;99.90
3790;DHT22;1910;49.042;9.028;2022-09-21T01:51:07;5.80;99.90
3790;DHT22;1910;49.042;9.028;2022-09-21T01:59:13;5.80;99.90
3790;DHT22;1910;49.042;9.028;2022-09-21T02:01:52;5.80;99.90
3790;DHT22;1910;49.042;9.028;2022-09-21T02:04:20;5.80;99.90
3790;DHT22;1910;49.042;9.028;2022-09-21T02:06:46;5.70;99.90
3790;DHT22;1910;49.042;9.028;2022-09-21T02:09:13;5.70;99.90
3790;DHT22;1910;49.042;9.028;2022-09-21T02:11:39;5.60;99.90
3790;DHT22;1910;49.042;9.028;2022-09-21T02:14:14;5.60;99.90
3790;DHT22;1910;49.042;9.028;2022-09-21T02:19:51;5.70;99.90
3790;DHT22;1910;49.042;9.028;2022-09-21T02:25:15;5.80;99.90
3790;DHT22;1910;49.042;9.028;2022-09-21T02:27:59;5.70;99.90
3790;DHT22;1910;49.042;9.028;2022-09-21T02:30:26;5.70;99.90
3790;DHT22;1910;49.042;9.028;2022-09-21T02:43:33;5.70;99.90
3790;DHT22;1910;49.042;9.028;2022-09-21T02:46:08;5.60;99.90
3790;DHT22;1910;49.042;9.028;2022-09-21T02:48:46;5.40;99.90
3790;DHT22;1910;49.042;9.028;2022-09-21T02:51:19;5.40;99.90
3790;DHT22;1910;49.042;9.028;2022-09-21T02:53:48;5.30;99.90
3790;DHT22;1910;49.042;9.028;2022-09-21T02:56:15;5.30;99.90
3790;DHT22;1910;49.042;9.028;2022-09-21T02:58:47;5.30;99.90
3790;DHT22;1910;49.042;9.028;2022-09-21T03:01:15;5.30;99.90
3790;DHT22;1910;49.042;9.028;2022-09-21T03:03:41;5.30;99.90
3790;DHT22;1910;49.042;9.028;2022-09-21T03:06:07;5.20;99.90
3790;DHT22;1910;49.042;9.028;2022-09-21T03:08:33;5.20;99.90
3790;DHT22;1910;49.042;9.028;2022-09-21T03:10:58;5.30;99.90
3790;DHT22;1910;49.042;9.028;2022-09-21T03:13:24;5.20;99.90
3790;DHT22;1910;49.042;9.028;2022-09-21T03:15:58;5.10;99.90
3790;DHT22;1910;49.042;9.028;2022-09-21T03:18:25;5.20;99.90
3790;DHT22;1910;49.042;9.028;2022-09-21T03:20:50;5.20;99.90
3790;DHT22;1910;49.042;9.028;2022-09-21T03:23:16;5.20;99.90
3790;DHT22;1910;49.042;9.028;2022-09-21T03:25:45;5.20;99.90
3790;DHT22;1910;49.042;9.028;2022-09-21T03:28:11;5.30;99.90
3790;DHT22;1910;49.042;9.028;2022-09-21T03:30:38;5.30;99.90
3790;DHT22;1910;49.042;9.028;2022-09-21T03:33:03;5.40;99.90
3790;DHT22;1910;49.042;9.028;2022-09-21T03:35:31;5.50;99.90
3790;DHT22;1910;49.042;9.028;2022-09-21T03:37:59;5.40;99.90
3790;DHT22;1910;49.042;9.028;2022-09-21T03:40:24;5.40;99.90
3790;DHT22;1910;49.042;9.028;2022-09-21T03:45:21;5.40;99.90
3790;DHT22;1910;49.042;9.028;2022-09-21T03:47:47;5.30;99.90
3790;DHT22;1910;49.042;9.028;2022-09-21T03:52:40;5.30;99.90
3790;DHT22;1910;49.042;9.028;2022-09-21T03:55:07;5.30;99.90
3790;DHT22;1910;49.042;9.028;2022-09-21T03:57:34;5.30;99.90
3790;DHT22;1910;49.042;9.028;2022-09-21T04:00:05;5.20;99.90
3790;DHT22;1910;49.042;9.028;2022-09-21T04:02:31;5.20;99.90
3790;DHT22;1910;49.042;9.028;2022-09-21T04:04:56;5.20;99.90
3790;DHT22;1910;49.042;9.028;2022-09-21T04:07:22;5.10;99.90
3790;DHT22;1910;49.042;9.028;2022-09-21T04:17:07;5.10;99.90
3790;DHT22;1910;49.042;9.028;2022-09-21T04:19:33;4.90;99.90
3790;DHT22;1910;49.042;9.028;2022-09-21T04:24:25;4.90;99.90
3790;DHT22;1910;49.042;9.028;2022-09-21T04:26:51;4.90;99.90
3790;DHT22;1910;49.042;9.028;2022-09-21T04:29:17;4.80;99.90
3790;DHT22;1910;49.042;9.028;2022-09-21T04:31:43;4.80;99.90
3790;DHT22;1910;49.042;9.028;2022-09-21T04:34:12;4.80;99.90
3790;DHT22;1910;49.042;9.028;2022-09-21T04:36:38;4.80;99.90
3790;DHT22;1910;49.042;9.028;2022-09-21T04:39:04;4.80;99.90
3790;DHT22;1910;49.042;9.028;2022-09-21T04:41:30;6.00;99.90
3790;DHT22;1910;49.042;9.028;2022-09-21T04:46:22;4.90;99.90
3790;DHT22;1910;49.042;9.028;2022-09-21T04:48:48;4.90;99.90
3790;DHT22;1910;49.042;9.028;2022-09-21T04:51:14;4.80;99.90
3790;DHT22;1910;49.042;9.028;2022-09-21T04:53:41;4.80;99.90
3790;DHT22;1910;49.042;9.028;2022-09-21T04:56:09;4.60;99.90
3790;DHT22;1910;49.042;9.028;2022-09-21T04:58:37;5.60;99.90
3790;DHT22;1910;49.042;9.028;2022-09-21T05:03:31;4.80;99.90
3790;DHT22;1910;49.042;9.028;2022-09-21T05:05:57;4.80;99.90
3790;DHT22;1910;49.042;9.028;2022-09-21T05:08:23;4.80;99.90
3790;DHT22;1910;49.042;9.028;2022-09-21T05:11:10;4.70;99.90
3790;DHT22;1910;49.042;9.028;2022-09-21T05:13:38;4.50;99.90
3790;DHT22;1910;49.042;9.028;2022-09-21T05:16:04;4.40;99.90
3790;DHT22;1910;49.042;9.028;2022-09-21T05:20:57;4.50;99.90
3790;DHT22;1910;49.042;9.028;2022-09-21T05:23:23;4.50;99.90
3790;DHT22;1910;49.042;9.028;2022-09-21T05:25:49;4.60;99.90
3790;DHT22;1910;49.042;9.028;2022-09-21T05:28:18;5.40;99.90
3790;DHT22;1910;49.042;9.028;2022-09-21T05:30:47;5.40;99.90
3790;DHT22;1910;49.042;9.028;2022-09-21T05:33:19;7.60;99.90
3790;DHT22;1910;49.042;9.028;2022-09-21T05:38:42;7.90;99.90
3790;DHT22;1910;49.042;9.028;2022-09-21T05:41:08;8.30;99.90
3790;DHT22;1910;49.042;9.028;2022-09-21T05:46:09;8.60;99.90
3790;DHT22;1910;49.042;9.028;2022-09-21T05:48:40;8.50;99.90
3790;DHT22;1910;49.042;9.028;2022-09-21T05:51:20;9.00;99.90
3790;DHT22;1910;49.042;9.028;2022-09-21T05:54:15;9.20;99.90
3790;DHT22;1910;49.042;9.028;2022-09-21T06:02:06;8.60;99.90
3790;DHT22;1910;49.042;9.028;2022-09-21T06:04:35;8.10;99.90
3790;DHT22;1910;49.042;9.028;2022-09-21T06:31:26;11.20;99.90
3790;DHT22;1910;49.042;9.028;2022-09-21T06:43:36;12.30;99.90
3790;DHT22;1910;49.042;9.028;2022-09-21T06:46:02;13.20;99.90
3790;DHT22;1910;49.042;9.028;2022-09-21T06:48:29;13.60;99.90
3790;DHT22;1910;49.042;9.028;2022-09-21T06:50:59;13.80;99.90
3790;DHT22;1910;49.042;9.028;2022-09-21T06:53:26;14.20;99.90
3790;DHT22;1910;49.042;9.028;2022-09-21T07:13:04;18.10;99.90
3790;DHT22;1910;49.042;9.028;2022-09-21T07:30:07;20.00;98.40
3790;DHT22;1910;49.042;9.028;2022-09-21T07:37:26;23.50;94.50
3790;DHT22;1910;49.042;9.028;2022-09-21T07:39:52;22.10;91.20
3790;DHT22;1910;49.042;9.028;2022-09-21T08:16:46;21.30;92.70
3790;DHT22;1910;49.042;9.028;2022-09-21T08:19:15;22.50;91.60
3790;DHT22;1910;49.042;9.028;2022-09-21T08:24:08;24.30;91.50
3790;DHT22;1910;49.042;9.028;2022-09-21T08:33:53;24.10;83.40
3790;DHT22;1910;49.042;9.028;2022-09-21T08:44:18;24.30;81.70
3790;DHT22;1910;49.042;9.028;2022-09-21T08:46:49;24.50;85.50
3790;DHT22;1910;49.042;9.028;2022-09-21T08:49:20;25.10;80.80
3790;DHT22;1910;49.042;9.028;2022-09-21T08:52:05;25.00;81.60
3790;DHT22;1910;49.042;9.028;2022-09-21T08:54:43;25.50;79.10
3790;DHT22;1910;49.042;9.028;2022-09-21T08:57:15;25.20;88.30
3790;DHT22;1910;49.042;9.028;2022-09-21T08:59:46;26.00;79.10
3790;DHT22;1910;49.042;9.028;2022-09-21T09:03:05;26.50;75.10
3790;DHT22;1910;49.042;9.028;2022-09-21T09:13:30;25.00;73.00
3790;DHT22;1910;49.042;9.028;2022-09-21T09:18:56;23.20;79.60
3790;DHT22;1910;49.042;9.028;2022-09-21T09:21:36;23.60;80.30
3790;DHT22;1910;49.042;9.028;2022-09-21T09:24:14;24.50;77.00
3790;DHT22;1910;49.042;9.028;2022-09-21T09:26:52;24.70;73.60
3790;DHT22;1910;49.042;9.028;2022-09-21T09:32:13;25.50;70.50
3790;DHT22;1910;49.042;9.028;2022-09-21T09:34:48;25.20;69.60
3790;DHT22;1910;49.042;9.028;2022-09-21T09:37:20;24.80;71.60
3790;DHT22;1910;49.042;9.028;2022-09-21T09:39:53;25.00;73.30
3790;DHT22;1910;49.042;9.028;2022-09-21T09:48:09;25.30;69.80
3790;DHT22;1910;49.042;9.028;2022-09-21T09:50:40;25.40;69.60
3790;DHT22;1910;49.042;9.028;2022-09-21T09:53:16;25.90;74.20
3790;DHT22;1910;49.042;9.028;2022-09-21T09:55:45;25.00;68.10
3790;DHT22;1910;49.042;9.028;2022-09-21T09:58:24;23.60;69.00
3790;DHT22;1910;49.042;9.028;2022-09-21T10:00:52;23.60;70.00
3790;DHT22;1910;49.042;9.028;2022-09-21T10:03:21;21.90;72.60
3790;DHT22;1910;49.042;9.028;2022-09-21T10:05:47;20.20;78.50
3790;DHT22;1910;49.042;9.028;2022-09-21T10:08:38;18.80;85.00
3790;DHT22;1910;49.042;9.028;2022-09-21T10:11:04;18.00;90.90
3790;DHT22;1910;49.042;9.028;2022-09-21T10:13:30;17.60;92.60
3790;DHT22;1910;49.042;9.028;2022-09-21T10:16:00;17.20;94.70
3790;DHT22;1910;49.042;9.028;2022-09-21T10:21:07;16.80;97.60
3790;DHT22;1910;49.042;9.028;2022-09-21T10:23:34;16.50;98.00
3790;DHT22;1910;49.042;9.028;2022-09-21T10:26:04;16.60;99.90
3790;DHT22;1910;49.042;9.028;2022-09-21T10:28:32;16.60;99.90
3790;DHT22;1910;49.042;9.028;2022-09-21T10:31:21;16.60;99.90
3790;DHT22;1910;49.042;9.028;2022-09-21T10:36:31;16.50;99.90
3790;DHT22;1910;49.042;9.028;2022-09-21T10:42:34;16.40;99.90
3790;DHT22;1910;49.042;9.028;2022-09-21T10:44:43;16.40;99.90
3790;DHT22;1910;49.042;9.028;2022-09-21T10:47:22;16.60;99.90
3790;DHT22;1910;49.042;9.028;2022-09-21T10:49:54;17.00;99.90
3790;DHT22;1910;49.042;9.028;2022-09-21T10:52:23;17.10;99.90
3790;DHT22;1910;49.042;9.028;2022-09-21T10:54:52;17.20;99.90
3790;DHT22;1910;49.042;9.028;2022-09-21T10:57:21;17.30;99.90
3790;DHT22;1910;49.042;9.028;2022-09-21T10:59:48;17.40;99.90
3790;DHT22;1910;49.042;9.028;2022-09-21T11:02:45;17.40;99.90
3790;DHT22;1910;49.042;9.028;2022-09-21T11:05:22;17.40;99.90
3790;DHT22;1910;49.042;9.028;2022-09-21T11:17:16;17.20;99.90
3790;DHT22;1910;49.042;9.028;2022-09-21T11:19:50;17.60;99.90
3790;DHT22;1910;49.042;9.028;2022-09-21T11:22:29;17.70;99.90
3790;DHT22;1910;49.042;9.028;2022-09-21T11:25:27;17.50;99.90
3790;DHT22;1910;49.042;9.028;2022-09-21T11:28:15;17.60;99.80
3790;DHT22;1910;49.042;9.028;2022-09-21T11:31:08;17.60;98.60
3790;DHT22;1910;49.042;9.028;2022-09-21T11:42:09;18.20;99.90
3790;DHT22;1910;49.042;9.028;2022-09-21T11:44:47;18.30;98.60
3790;DHT22;1910;49.042;9.028;2022-09-21T11:50:19;18.60;98.20
3790;DHT22;1910;49.042;9.028;2022-09-21T11:55:43;18.80;98.20
3790;DHT22;1910;49.042;9.028;2022-09-21T11:58:40;18.80;97.50
3790;DHT22;1910;49.042;9.028;2022-09-21T12:01:38;18.80;96.10
3790;DHT22;1910;49.042;9.028;2022-09-21T12:07:10;18.60;96.10
3790;DHT22;1910;49.042;9.028;2022-09-21T12:12:27;18.80;95.00
3790;DHT22;1910;49.042;9.028;2022-09-21T12:15:13;18.60;93.40
3790;DHT22;1910;49.042;9.028;2022-09-21T12:18:03;18.60;93.70
3790;DHT22;1910;49.042;9.028;2022-09-21T12:20:47;18.60;94.60
3790;DHT22;1910;49.042;9.028;2022-09-21T12:23:38;18.40;93.00
3790;DHT22;1910;49.042;9.028;2022-09-21T12:26:05;18.10;93.80
3790;DHT22;1910;49.042;9.028;2022-09-21T12:28:49;18.20;94.20
3790;DHT22;1910;49.042;9.028;2022-09-21T12:31:23;18.30;94.60
3790;DHT22;1910;49.042;9.028;2022-09-21T12:33:56;18.60;93.90
3790;DHT22;1910;49.042;9.028;2022-09-21T12:36:31;18.90;92.90
3790;DHT22;1910;49.042;9.028;2022-09-21T12:41:55;19.40;90.10
3790;DHT22;1910;49.042;9.028;2022-09-21T12:44:50;19.40;90.50
3790;DHT22;1910;49.042;9.028;2022-09-21T12:47:34;18.70;91.20
3790;DHT22;1910;49.042;9.028;2022-09-21T12:50:05;18.30;91.00
3790;DHT22;1910;49.042;9.028;2022-09-21T12:52:32;18.00;92.20
3790;DHT22;1910;49.042;9.028;2022-09-21T13:03:34;19.20;91.60
3790;DHT22;1910;49.042;9.028;2022-09-21T13:08:43;19.30;88.30
3790;DHT22;1910;49.042;9.028;2022-09-21T13:11:11;19.30;86.10
3790;DHT22;1910;49.042;9.028;2022-09-21T13:16:31;18.40;87.90
3790;DHT22;1910;49.042;9.028;2022-09-21T13:19:20;18.20;88.50
3790;DHT22;1910;49.042;9.028;2022-09-21T13:22:10;18.10;90.50
3790;DHT22;1910;49.042;9.028;2022-09-21T13:24:39;18.00;90.00
3790;DHT22;1910;49.042;9.028;2022-09-21T13:27:06;17.90;89.80
3790;DHT22;1910;49.042;9.028;2022-09-21T13:29:34;17.80;89.60
3790;DHT22;1910;49.042;9.028;2022-09-21T13:32:21;18.10;88.70
3790;DHT22;1910;49.042;9.028;2022-09-21T13:34:47;18.30;87.40
3790;DHT22;1910;49.042;9.028;2022-09-21T13:39:53;18.50;86.50
3790;DHT22;1910;49.042;9.028;2022-09-21T13:47:47;18.60;83.70
3790;DHT22;1910;49.042;9.028;2022-09-21T13:53:19;18.10;85.70
3790;DHT22;1910;49.042;9.028;2022-09-21T13:55:54;18.10;86.40
3790;DHT22;1910;49.042;9.028;2022-09-21T14:00:53;18.30;82.50
3790;DHT22;1910;49.042;9.028;2022-09-21T14:03:24;18.30;82.40
3790;DHT22;1910;49.042;9.028;2022-09-21T14:05:59;18.30;84.50
3790;DHT22;1910;49.042;9.028;2022-09-21T14:08:31;18.50;81.40
3790;DHT22;1910;49.042;9.028;2022-09-21T14:11:30;18.50;83.10
3790;DHT22;1910;49.042;9.028;2022-09-21T14:35:22;17.50;78.90
3790;DHT22;1910;49.042;9.028;2022-09-21T14:37:51;17.70;77.90
3790;DHT22;1910;49.042;9.028;2022-09-21T14:40:23;17.70;76.90
3790;DHT22;1910;49.042;9.028;2022-09-21T14:42:51;17.90;76.00
3790;DHT22;1910;49.042;9.028;2022-09-21T14:45:21;18.00;77.10
3790;DHT22;1910;49.042;9.028;2022-09-21T14:53:50;18.30;76.50
3790;DHT22;1910;49.042;9.028;2022-09-21T14:57:21;17.90;73.30
3790;DHT22;1910;49.042;9.028;2022-09-21T15:00:17;17.70;74.40
3790;DHT22;1910;49.042;9.028;2022-09-21T15:02:47;17.50;76.80
3790;DHT22;1910;49.042;9.028;2022-09-21T15:11:05;17.50;79.70
3790;DHT22;1910;49.042;9.028;2022-09-21T15:16:30;17.40;79.50
3790;DHT22;1910;49.042;9.028;2022-09-21T15:19:12;17.40;80.60
3790;DHT22;1910;49.042;9.028;2022-09-21T15:21:46;17.30;78.10
3790;DHT22;1910;49.042;9.028;2022-09-21T15:24:18;17.30;78.50
3790;DHT22;1910;49.042;9.028;2022-09-21T15:26:45;17.30;79.70
3790;DHT22;1910;49.042;9.028;2022-09-21T15:29:29;17.00;81.30
3790;DHT22;1910;49.042;9.028;2022-09-21T15:31:56;16.90;80.70
3790;DHT22;1910;49.042;9.028;2022-09-21T15:34:23;16.90;81.40
3790;DHT22;1910;49.042;9.028;2022-09-21T15:39:26;16.90;79.00
3790;DHT22;1910;49.042;9.028;2022-09-21T15:44:34;16.90;79.70
3790;DHT22;1910;49.042;9.028;2022-09-21T15:47:02;16.90;78.30
3790;DHT22;1910;49.042;9.028;2022-09-21T15:49:29;17.00;78.90
3790;DHT22;1910;49.042;9.028;2022-09-21T15:51:55;16.90;78.70
3790;DHT22;1910;49.042;9.028;2022-09-21T15:57:00;16.90;77.60
3790;DHT22;1910;49.042;9.028;2022-09-21T15:59:27;16.80;75.90
3790;DHT22;1910;49.042;9.028;2022-09-21T16:01:59;16.60;75.30
3790;DHT22;1910;49.042;9.028;2022-09-21T16:04:26;16.50;75.50
3790;DHT22;1910;49.042;9.028;2022-09-21T16:07:05;16.50;77.60
3790;DHT22;1910;49.042;9.028;2022-09-21T16:09:42;16.40;75.70
3790;DHT22;1910;49.042;9.028;2022-09-21T16:12:43;16.40;75.00
3790;DHT22;1910;49.042;9.028;2022-09-21T16:15:24;16.40;73.80
3790;DHT22;1910;49.042;9.028;2022-09-21T16:18:01;16.30;74.60
3790;DHT22;1910;49.042;9.028;2022-09-21T16:20:39;16.30;74.30
3790;DHT22;1910;49.042;9.028;2022-09-21T16:23:14;16.20;74.20
3790;DHT22;1910;49.042;9.028;2022-09-21T16:25:41;16.20;74.50
3790;DHT22;1910;49.042;9.028;2022-09-21T16:30:52;16.20;75.30
3790;DHT22;1910;49.042;9.028;2022-09-21T16:38:42;16.00;76.90
3790;DHT22;1910;49.042;9.028;2022-09-21T16:41:08;15.90;76.70
3790;DHT22;1910;49.042;9.028;2022-09-21T16:43:35;15.90;78.10
3790;DHT22;1910;49.042;9.028;2022-09-21T16:46:04;15.60;77.20
3790;DHT22;1910;49.042;9.028;2022-09-21T16:48:32;15.60;77.80
3790;DHT22;1910;49.042;9.028;2022-09-21T16:50:58;15.60;79.10
3790;DHT22;1910;49.042;9.028;2022-09-21T16:53:23;15.50;79.30
3790;DHT22;1910;49.042;9.028;2022-09-21T16:55:52;15.50;79.40
3790;DHT22;1910;49.042;9.028;2022-09-21T16:58:18;15.40;79.70
3790;DHT22;1910;49.042;9.028;2022-09-21T17:00:47;15.20;80.10
3790;DHT22;1910;49.042;9.028;2022-09-21T17:03:13;15.20;80.60
3790;DHT22;1910;49.042;9.028;2022-09-21T17:05:40;15.00;80.80
3790;DHT22;1910;49.042;9.028;2022-09-21T17:08:05;14.70;88.00
3790;DHT22;1910;49.042;9.028;2022-09-21T17:10:37;14.70;89.30
3790;DHT22;1910;49.042;9.028;2022-09-21T17:13:03;14.10;93.10
3790;DHT22;1910;49.042;9.028;2022-09-21T17:15:32;14.10;93.90
3790;DHT22;1910;49.042;9.028;2022-09-21T17:17:58;13.90;96.00
3790;DHT22;1910;49.042;9.028;2022-09-21T17:22:55;13.40;99.90
3790;DHT22;1910;49.042;9.028;2022-09-21T17:25:20;13.10;99.90
3790;DHT22;1910;49.042;9.028;2022-09-21T17:27:46;12.80;99.90
3790;DHT22;1910;49.042;9.028;2022-09-21T17:30:12;12.80;99.90
3790;DHT22;1910;49.042;9.028;2022-09-21T17:32:40;12.60;99.90
3790;DHT22;1910;49.042;9.028;2022-09-21T17:35:16;11.90;99.90
3790;DHT22;1910;49.042;9.028;2022-09-21T17:37:44;11.90;99.90
3790;DHT22;1910;49.042;9.028;2022-09-21T17:40:10;11.60;99.90
3790;DHT22;1910;49.042;9.028;2022-09-21T17:42:40;11.40;99.90
3790;DHT22;1910;49.042;9.028;2022-09-21T17:47:37;11.10;99.90
3790;DHT22;1910;49.042;9.028;2022-09-21T17:52:39;10.70;99.90
3790;DHT22;1910;49.042;9.028;2022-09-21T17:55:23;10.60;99.90
3790;DHT22;1910;49.042;9.028;2022-09-21T18:00:44;10.40;99.90
3790;DHT22;1910;49.042;9.028;2022-09-21T18:03:23;10.30;99.90
3790;DHT22;1910;49.042;9.028;2022-09-21T18:05:50;10.20;99.90
3790;DHT22;1910;49.042;9.028;2022-09-21T18:08:18;10.10;99.90
3790;DHT22;1910;49.042;9.028;2022-09-21T18:16:34;9.90;99.90
3790;DHT22;1910;49.042;9.028;2022-09-21T18:21:32;9.80;99.90
3790;DHT22;1910;49.042;9.028;2022-09-21T18:24:15;9.80;99.90
3790;DHT22;1910;49.042;9.028;2022-09-21T18:26:43;9.70;99.90
3790;DHT22;1910;49.042;9.028;2022-09-21T18:29:24;9.70;99.90
3790;DHT22;1910;49.042;9.028;2022-09-21T18:32:14;9.60;99.90
3790;DHT22;1910;49.042;9.028;2022-09-21T18:40:27;9.40;99.90
3790;DHT22;1910;49.042;9.028;2022-09-21T18:49:15;9.20;99.90
3790;DHT22;1910;49.042;9.028;2022-09-21T18:51:53;9.10;99.90
3790;DHT22;1910;49.042;9.028;2022-09-21T18:54:23;9.10;99.90
3790;DHT22;1910;49.042;9.028;2022-09-21T18:56:52;9.00;99.90
3790;DHT22;1910;49.042;9.028;2022-09-21T18:59:18;8.90;99.90
3790;DHT22;1910;49.042;9.028;2022-09-21T19:01:45;8.90;99.90
3790;DHT22;1910;49.042;9.028;2022-09-21T19:04:11;8.90;99.90
3790;DHT22;1910;49.042;9.028;2022-09-21T19:06:49;8.90;99.90
3790;DHT22;1910;49.042;9.028;2022-09-21T19:12:10;8.70;99.90
3790;DHT22;1910;49.042;9.028;2022-09-21T19:14:49;8.70;99.90
3790;DHT22;1910;49.042;9.028;2022-09-21T19:17:20;8.70;99.90
3790;DHT22;1910;49.042;9.028;2022-09-21T19:20:14;8.60;99.90
3790;DHT22;1910;49.042;9.028;2022-09-21T19:25:35;8.50;99.90
3790;DHT22;1910;49.042;9.028;2022-09-21T19:30:59;8.50;99.90
3790;DHT22;1910;49.042;9.028;2022-09-21T19:33:30;8.50;99.90
3790;DHT22;1910;49.042;9.028;2022-09-21T19:35:56;8.50;99.90
3790;DHT22;1910;49.042;9.028;2022-09-21T19:38:25;8.40;99.90
3790;DHT22;1910;49.042;9.028;2022-09-21T19:41:23;8.40;99.90
3790;DHT22;1910;49.042;9.028;2022-09-21T19:49:15;8.30;99.90
3790;DHT22;1910;49.042;9.028;2022-09-21T19:51:51;8.30;99.90
3790;DHT22;1910;49.042;9.028;2022-09-21T19:54:20;8.20;99.90
3790;DHT22;1910;49.042;9.028;2022-09-21T19:57:15;8.10;99.90
3790;DHT22;1910;49.042;9.028;2022-09-21T20:00:00;8.00;99.90
3790;DHT22;1910;49.042;9.028;2022-09-21T20:02:34;8.00;99.90
3790;DHT22;1910;49.042;9.028;2022-09-21T20:05:10;8.10;99.90
3790;DHT22;1910;49.042;9.028;2022-09-21T20:10:40;8.00;99.90
3790;DHT22;1910;49.042;9.028;2022-09-21T20:13:42;7.90;99.90
3790;DHT22;1910;49.042;9.028;2022-09-21T20:16:42;7.80;99.90
3790;DHT22;1910;49.042;9.028;2022-09-21T20:19:37;7.80;99.90
3790;DHT22;1910;49.042;9.028;2022-09-21T20:22:12;7.80;99.90
3790;DHT22;1910;49.042;9.028;2022-09-21T20:25:03;7.80;99.90
3790;DHT22;1910;49.042;9.028;2022-09-21T20:27:53;7.70;99.90
3790;DHT22;1910;49.042;9.028;2022-09-21T20:30:23;7.70;99.90
3790;DHT22;1910;49.042;9.028;2022-09-21T20:32:52;7.70;99.90
3790;DHT22;1910;49.042;9.028;2022-09-21T20:35:22;7.70;99.90
3790;DHT22;1910;49.042;9.028;2022-09-21T20:37:48;7.60;99.90
3790;DHT22;1910;49.042;9.028;2022-09-21T20:40:15;7.60;99.90
3790;DHT22;1910;49.042;9.028;2022-09-21T20:42:41;7.60;99.90
3790;DHT22;1910;49.042;9.028;2022-09-21T20:45:08;7.60;99.90
3790;DHT22;1910;49.042;9.028;2022-09-21T20:47:34;7.60;99.90
3790;DHT22;1910;49.042;9.028;2022-09-21T20:50:01;7.50;99.90
3790;DHT22;1910;49.042;9.028;2022-09-21T20:52:27;7.40;99.90
3790;DHT22;1910;49.042;9.028;2022-09-21T20:54:53;7.40;99.90
3790;DHT22;1910;49.042;9.028;2022-09-21T20:57:18;7.30;99.90
3790;DHT22;1910;49.042;9.028;2022-09-21T20:59:46;7.30;99.90
3790;DHT22;1910;49.042;9.028;2022-09-21T21:02:13;7.20;99.90
3790;DHT22;1910;49.042;9.028;2022-09-21T21:04:39;7.20;99.90
3790;DHT22;1910;49.042;9.028;2022-09-21T21:07:05;7.20;99.90
3790;DHT22;1910;49.042;9.028;2022-09-21T21:09:31;7.20;99.90
3790;DHT22;1910;49.042;9.028;2022-09-21T21:11:57;7.20;99.90
3790;DHT22;1910;49.042;9.028;2022-09-21T21:14:23;7.20;99.90
3790;DHT22;1910;49.042;9.028;2022-09-21T21:16:50;7.20;99.90
3790;DHT22;1910;49.042;9.028;2022-09-21T21:19:16;7.20;99.90
3790;DHT22;1910;49.042;9.028;2022-09-21T21:21:42;7.10;99.90
3790;DHT22;1910;49.042;9.028;2022-09-21T21:24:08;7.10;99.90
3790;DHT22;1910;49.042;9.028;2022-09-21T21:26:52;7.00;99.90
3790;DHT22;1910;49.042;9.028;2022-09-21T21:29:18;7.00;99.90
3790;DHT22;1910;49.042;9.028;2022-09-21T21:31:46;6.90;99.90
3790;DHT22;1910;49.042;9.028;2022-09-21T21:34:12;6.90;99.90
3790;DHT22;1910;49.042;9.028;2022-09-21T21:36:38;6.90;99.90
3790;DHT22;1910;49.042;9.028;2022-09-21T21:39:04;6.90;99.90
3790;DHT22;1910;49.042;9.028;2022-09-21T21:41:30;6.90;99.90
3790;DHT22;1910;49.042;9.028;2022-09-21T21:43:57;6.90;99.90
3790;DHT22;1910;49.042;9.028;2022-09-21T21:46:22;6.90;99.90
3790;DHT22;1910;49.042;9.028;2022-09-21T21:56:12;6.70;99.90
3790;DHT22;1910;49.042;9.028;2022-09-21T21:58:38;6.70;99.90
3790;DHT22;1910;49.042;9.028;2022-09-21T22:03:33;6.70;99.90
3790;DHT22;1910;49.042;9.028;2022-09-21T22:13:22;6.60;99.90
3790;DHT22;1910;49.042;9.028;2022-09-21T22:15:49;6.60;99.90
3790;DHT22;1910;49.042;9.028;2022-09-21T22:18:15;6.60;99.90
3790;DHT22;1910;49.042;9.028;2022-09-21T22:25:33;6.50;99.90
3790;DHT22;1910;49.042;9.028;2022-09-21T22:32:51;6.50;99.90
3790;DHT22;1910;49.042;9.028;2022-09-21T22:37:42;6.50;99.90
3790;DHT22;1910;49.042;9.028;2022-09-21T22:40:08;6.50;99.90
3790;DHT22;1910;49.042;9.028;2022-09-21T22:42:34;6.50;99.90
3790;DHT22;1910;49.042;9.028;2022-09-21T22:47:25;6.50;99.90
3790;DHT22;1910;49.042;9.028;2022-09-21T22:54:43;6.30;99.90
3790;DHT22;1910;49.042;9.028;2022-09-21T22:57:09;6.30;99.90
3790;DHT22;1910;49.042;9.028;2022-09-21T22:59:34;6.30;99.90
3790;DHT22;1910;49.042;9.028;2022-09-21T23:04:26;6.20;99.90
3790;DHT22;1910;49.042;9.028;2022-09-21T23:09:19;6.20;99.90
3790;DHT22;1910;49.042;9.028;2022-09-21T23:11:47;6.10;99.90
3790;DHT22;1910;49.042;9.028;2022-09-21T23:14:16;6.10;99.90
3790;DHT22;1910;49.042;9.028;2022-09-21T23:16:42;6.30;99.90
3790;DHT22;1910;49.042;9.028;2022-09-21T23:19:08;6.20;99.90
3790;DHT22;1910;49.042;9.028;2022-09-21T23:21:40;6.20;99.90
3790;DHT22;1910;49.042;9.028;2022-09-21T23:24:06;6.20;99.90
3790;DHT22;1910;49.042;9.028;2022-09-21T23:29:04;6.20;99.90
3790;DHT22;1910;49.042;9.028;2022-09-21T23:31:32;6.10;99.90
3790;DHT22;1910;49.042;9.028;2022-09-21T23:34:02;6.20;99.90
3790;DHT22;1910;49.042;9.028;2022-09-21T23:36:29;6.20;99.90